Accueil
METAR-TAF:

METAR-TAF

Aéroports :

Spirit of St Louis Airport

Saint-Louis, Missouri, États-Unis

latitude: 38-39-26N, longitude: 090-39-21W, altitude: 141 m

Observation

Le bulletin a été fait il y a 50 minutes, à 10:54 UTC
Vent 3 kt de ouest
Température 8°C
Humidité 81%
Pression 1018 hPa
Visibilité: 16.1 km
Ciel clair

METAR: KSUS 011054Z AUTO 26003KT 10SM CLR 08/05 A3006 RMK AO2 SLP178 T00780050

Heure: 06:44 (11:44 UTC)

Prévision

Le bulletin a été fait il y a 11 minutes, à 11:33 UTC
Prévision valable du 01 à 12 UTC au 02 à 12 UTC
Vent 4 kt de direction variable
Visibilité: 10 km
Ciel clair
A partir de 01 à 1600 UTC
Vent 11 kt de ouest/nord-ouest avec des rafales jusqu'à 21 kt
Visibilité: 10 km
Quelques nuages à une hauteur de 5000 ft
A partir de 02 à 0000 UTC
Vent 8 kt de nord-ouest
Visibilité: 10 km
Ciel clair

TAF: KSUS 011133Z 0112/0212 VRB04KT P6SM SKC FM011600 30011G21KT P6SM FEW050 FM020000 32008KT P6SM SKC

Observations et prévisions météorologiques de plus de 4000 aéroports (messages METAR et TAF).

Les stations disponibles sont représentées par des disques jaunes et rouges sur la carte.

Passer la souris dessus pour voir le nom de la station.

Cliquer dessus pour voir les observations et prévisions météorologiques.

Pour changer de carte: cliquez sur les boutons verts avec une croix noire pour zoomer, sur le bouton vert avec un tiret pour effectuer un zoom arrière, ou sur les flèches vertes pour les cartes adjacentes.


METAR-TAF: